Rishon LeZiyyon, Israel
Current Conditions -  °F | °C
As of 12:50 AM on Friday 28 Nov 2014 (Local Time) from LLBG Reporting Station
Scattered Clouds Scattered Clouds  
Wind Chill: 57°   Ceiling: Unl
Heat Index: 57°   Visibility: 6mi
Dew Point: 54°   Wind: 7mph
Humidity: 88%   Direction: 150°SSE
Pressure: 30.12"   Gusts: NA
Location:  31.96°N, 34.8°E
Report Text: LLBG 272150Z 15006KT 9999 SCT030 14/12 Q1020 NOSIG
Loading
Personal Weather Stations






























Interactive Weather Map New forecast layout! Learn more

10-Day Weather Forecast

Advertisements
Track Severe Weather on mobile